sensor_id;sensor_type;location;lat;lon;timestamp;P1;durP1;ratioP1;P2;durP2;ratioP2
36061;SDS011;22123;52.412;20.970;2023-02-28T00:00:30;6.03;;;3.05;;
36061;SDS011;22123;52.412;20.970;2023-02-28T00:02:56;6.50;;;2.67;;
36061;SDS011;22123;52.412;20.970;2023-02-28T00:05:23;17.77;;;2.85;;
36061;SDS011;22123;52.412;20.970;2023-02-28T00:07:50;4.18;;;2.20;;
36061;SDS011;22123;52.412;20.970;2023-02-28T00:10:20;7.82;;;1.98;;
36061;SDS011;22123;52.412;20.970;2023-02-28T00:12:48;3.38;;;2.85;;
36061;SDS011;22123;52.412;20.970;2023-02-28T00:15:15;5.22;;;3.05;;
36061;SDS011;22123;52.412;20.970;2023-02-28T00:17:41;13.00;;;3.85;;
36061;SDS011;22123;52.412;20.970;2023-02-28T00:20:08;4.90;;;3.15;;
36061;SDS011;22123;52.412;20.970;2023-02-28T00:22:36;3.80;;;3.10;;
36061;SDS011;22123;52.412;20.970;2023-02-28T00:25:03;15.65;;;6.53;;
36061;SDS011;22123;52.412;20.970;2023-02-28T00:27:30;6.57;;;5.00;;
36061;SDS011;22123;52.412;20.970;2023-02-28T00:29:56;7.75;;;3.53;;
36061;SDS011;22123;52.412;20.970;2023-02-28T00:32:21;8.55;;;3.45;;
36061;SDS011;22123;52.412;20.970;2023-02-28T00:34:47;12.73;;;5.13;;
36061;SDS011;22123;52.412;20.970;2023-02-28T00:37:13;7.38;;;2.47;;
36061;SDS011;22123;52.412;20.970;2023-02-28T00:39:39;6.10;;;3.95;;
36061;SDS011;22123;52.412;20.970;2023-02-28T00:42:06;6.00;;;4.95;;
36061;SDS011;22123;52.412;20.970;2023-02-28T00:44:33;3.65;;;2.05;;
36061;SDS011;22123;52.412;20.970;2023-02-28T00:46:59;4.72;;;3.25;;
36061;SDS011;22123;52.412;20.970;2023-02-28T00:49:26;6.45;;;3.22;;
36061;SDS011;22123;52.412;20.970;2023-02-28T00:51:53;10.38;;;4.25;;
36061;SDS011;22123;52.412;20.970;2023-02-28T00:54:21;9.30;;;3.53;;
36061;SDS011;22123;52.412;20.970;2023-02-28T00:56:48;2.97;;;1.98;;
36061;SDS011;22123;52.412;20.970;2023-02-28T00:59:15;2.15;;;1.92;;
36061;SDS011;22123;52.412;20.970;2023-02-28T01:01:43;4.50;;;3.08;;
36061;SDS011;22123;52.412;20.970;2023-02-28T01:04:10;12.18;;;1.92;;
36061;SDS011;22123;52.412;20.970;2023-02-28T01:06:36;5.57;;;1.98;;
36061;SDS011;22123;52.412;20.970;2023-02-28T01:09:03;5.05;;;2.13;;
36061;SDS011;22123;52.412;20.970;2023-02-28T01:11:30;4.43;;;2.05;;
36061;SDS011;22123;52.412;20.970;2023-02-28T01:13:56;6.25;;;2.20;;
36061;SDS011;22123;52.412;20.970;2023-02-28T01:16:22;4.30;;;2.45;;
36061;SDS011;22123;52.412;20.970;2023-02-28T01:18:49;5.32;;;3.15;;
36061;SDS011;22123;52.412;20.970;2023-02-28T01:21:15;7.25;;;2.47;;
36061;SDS011;22123;52.412;20.970;2023-02-28T01:23:44;5.68;;;2.60;;
36061;SDS011;22123;52.412;20.970;2023-02-28T01:26:16;2.05;;;1.25;;
36061;SDS011;22123;52.412;20.970;2023-02-28T01:28:44;2.47;;;2.17;;
36061;SDS011;22123;52.412;20.970;2023-02-28T01:31:12;3.20;;;1.80;;
36061;SDS011;22123;52.412;20.970;2023-02-28T01:33:38;6.60;;;3.45;;
36061;SDS011;22123;52.412;20.970;2023-02-28T01:36:06;3.85;;;2.70;;
36061;SDS011;22123;52.412;20.970;2023-02-28T01:38:36;9.15;;;3.85;;
36061;SDS011;22123;52.412;20.970;2023-02-28T01:41:02;5.93;;;2.08;;
36061;SDS011;22123;52.412;20.970;2023-02-28T01:43:30;14.13;;;2.72;;
36061;SDS011;22123;52.412;20.970;2023-02-28T01:45:58;4.43;;;2.58;;
36061;SDS011;22123;52.412;20.970;2023-02-28T01:48:26;4.85;;;1.40;;
36061;SDS011;22123;52.412;20.970;2023-02-28T01:50:56;4.57;;;2.63;;
36061;SDS011;22123;52.412;20.970;2023-02-28T01:53:30;4.88;;;2.88;;
36061;SDS011;22123;52.412;20.970;2023-02-28T01:56:00;14.95;;;4.47;;
36061;SDS011;22123;52.412;20.970;2023-02-28T01:58:29;12.48;;;4.85;;
36061;SDS011;22123;52.412;20.970;2023-02-28T02:00:55;4.80;;;2.80;;
36061;SDS011;22123;52.412;20.970;2023-02-28T02:03:21;8.65;;;3.10;;
36061;SDS011;22123;52.412;20.970;2023-02-28T02:05:47;2.17;;;1.98;;
36061;SDS011;22123;52.412;20.970;2023-02-28T02:08:15;8.75;;;3.47;;
36061;SDS011;22123;52.412;20.970;2023-02-28T02:16:18;6.25;;;4.70;;
36061;SDS011;22123;52.412;20.970;2023-02-28T02:35:15;6.22;;;3.25;;
36061;SDS011;22123;52.412;20.970;2023-02-28T02:40:46;2.35;;;2.15;;
36061;SDS011;22123;52.412;20.970;2023-02-28T02:43:37;4.43;;;2.00;;
36061;SDS011;22123;52.412;20.970;2023-02-28T02:46:10;4.90;;;4.32;;
36061;SDS011;22123;52.412;20.970;2023-02-28T02:48:46;3.15;;;2.55;;
36061;SDS011;22123;52.412;20.970;2023-02-28T02:51:16;6.60;;;3.40;;
36061;SDS011;22123;52.412;20.970;2023-02-28T02:53:55;3.20;;;2.78;;
36061;SDS011;22123;52.412;20.970;2023-02-28T02:56:28;3.45;;;3.03;;
36061;SDS011;22123;52.412;20.970;2023-02-28T02:58:59;3.35;;;2.15;;
36061;SDS011;22123;52.412;20.970;2023-02-28T03:01:28;2.22;;;2.05;;
36061;SDS011;22123;52.412;20.970;2023-02-28T03:03:57;0.47;;;0.47;;
36061;SDS011;22123;52.412;20.970;2023-02-28T03:06:26;1.50;;;1.40;;
36061;SDS011;22123;52.412;20.970;2023-02-28T03:08:53;2.58;;;2.38;;
36061;SDS011;22123;52.412;20.970;2023-02-28T03:11:19;7.72;;;5.70;;
36061;SDS011;22123;52.412;20.970;2023-02-28T03:25:08;9.25;;;4.18;;
36061;SDS011;22123;52.412;20.970;2023-02-28T03:32:51;6.50;;;4.72;;
36061;SDS011;22123;52.412;20.970;2023-02-28T03:35:26;8.40;;;4.82;;
36061;SDS011;22123;52.412;20.970;2023-02-28T03:38:08;7.88;;;4.93;;
36061;SDS011;22123;52.412;20.970;2023-02-28T03:40:38;4.90;;;3.25;;
36061;SDS011;22123;52.412;20.970;2023-02-28T03:43:09;19.23;;;7.47;;
36061;SDS011;22123;52.412;20.970;2023-02-28T03:45:39;18.65;;;6.53;;
36061;SDS011;22123;52.412;20.970;2023-02-28T03:48:21;3.92;;;3.35;;
36061;SDS011;22123;52.412;20.970;2023-02-28T03:50:53;5.32;;;4.43;;
36061;SDS011;22123;52.412;20.970;2023-02-28T03:56:13;4.43;;;3.00;;
36061;SDS011;22123;52.412;20.970;2023-02-28T03:59:00;6.25;;;3.90;;
36061;SDS011;22123;52.412;20.970;2023-02-28T04:01:30;12.05;;;5.25;;
36061;SDS011;22123;52.412;20.970;2023-02-28T04:04:01;4.95;;;2.50;;
36061;SDS011;22123;52.412;20.970;2023-02-28T04:06:29;6.93;;;6.15;;
36061;SDS011;22123;52.412;20.970;2023-02-28T04:08:57;6.75;;;3.58;;
36061;SDS011;22123;52.412;20.970;2023-02-28T04:11:33;12.57;;;3.17;;
36061;SDS011;22123;52.412;20.970;2023-02-28T04:16:30;2.08;;;1.73;;
36061;SDS011;22123;52.412;20.970;2023-02-28T04:18:58;7.28;;;3.40;;
36061;SDS011;22123;52.412;20.970;2023-02-28T04:21:25;9.40;;;4.22;;
36061;SDS011;22123;52.412;20.970;2023-02-28T04:23:51;5.22;;;2.63;;
36061;SDS011;22123;52.412;20.970;2023-02-28T04:26:16;6.00;;;4.88;;
36061;SDS011;22123;52.412;20.970;2023-02-28T04:28:42;3.03;;;1.10;;
36061;SDS011;22123;52.412;20.970;2023-02-28T04:31:08;3.10;;;2.63;;
36061;SDS011;22123;52.412;20.970;2023-02-28T04:33:35;6.10;;;4.03;;
36061;SDS011;22123;52.412;20.970;2023-02-28T04:36:02;10.63;;;4.20;;
36061;SDS011;22123;52.412;20.970;2023-02-28T04:38:32;8.35;;;5.20;;
36061;SDS011;22123;52.412;20.970;2023-02-28T04:40:59;4.47;;;4.05;;
36061;SDS011;22123;52.412;20.970;2023-02-28T04:43:26;11.23;;;5.15;;
36061;SDS011;22123;52.412;20.970;2023-02-28T04:45:53;20.33;;;3.90;;
36061;SDS011;22123;52.412;20.970;2023-02-28T04:48:20;7.57;;;3.85;;
36061;SDS011;22123;52.412;20.970;2023-02-28T04:50:46;3.28;;;2.35;;
36061;SDS011;22123;52.412;20.970;2023-02-28T04:53:12;2.88;;;2.30;;
36061;SDS011;22123;52.412;20.970;2023-02-28T04:55:38;4.85;;;2.72;;
36061;SDS011;22123;52.412;20.970;2023-02-28T04:58:03;4.93;;;3.85;;
36061;SDS011;22123;52.412;20.970;2023-02-28T05:00:29;4.32;;;2.40;;
36061;SDS011;22123;52.412;20.970;2023-02-28T05:02:55;6.10;;;3.15;;
36061;SDS011;22123;52.412;20.970;2023-02-28T05:05:21;7.53;;;4.57;;
36061;SDS011;22123;52.412;20.970;2023-02-28T05:07:47;1.48;;;1.38;;
36061;SDS011;22123;52.412;20.970;2023-02-28T05:10:13;4.13;;;3.33;;
36061;SDS011;22123;52.412;20.970;2023-02-28T05:12:39;8.85;;;5.70;;
36061;SDS011;22123;52.412;20.970;2023-02-28T05:15:05;7.40;;;4.22;;
36061;SDS011;22123;52.412;20.970;2023-02-28T05:17:31;7.93;;;4.25;;
36061;SDS011;22123;52.412;20.970;2023-02-28T05:19:57;9.10;;;2.75;;
36061;SDS011;22123;52.412;20.970;2023-02-28T05:22:22;5.25;;;3.38;;
36061;SDS011;22123;52.412;20.970;2023-02-28T05:24:48;8.95;;;5.38;;
36061;SDS011;22123;52.412;20.970;2023-02-28T05:27:14;10.88;;;5.90;;
36061;SDS011;22123;52.412;20.970;2023-02-28T05:29:40;6.15;;;3.42;;
36061;SDS011;22123;52.412;20.970;2023-02-28T05:32:06;8.30;;;5.75;;
36061;SDS011;22123;52.412;20.970;2023-02-28T05:34:32;1.63;;;1.52;;
36061;SDS011;22123;52.412;20.970;2023-02-28T05:36:58;13.63;;;6.53;;
36061;SDS011;22123;52.412;20.970;2023-02-28T05:39:24;2.40;;;2.20;;
36061;SDS011;22123;52.412;20.970;2023-02-28T05:41:49;7.57;;;5.45;;
36061;SDS011;22123;52.412;20.970;2023-02-28T05:44:15;11.52;;;4.35;;
36061;SDS011;22123;52.412;20.970;2023-02-28T05:46:48;9.73;;;3.75;;
36061;SDS011;22123;52.412;20.970;2023-02-28T05:49:14;12.23;;;2.97;;
36061;SDS011;22123;52.412;20.970;2023-02-28T05:51:40;8.45;;;3.53;;
36061;SDS011;22123;52.412;20.970;2023-02-28T05:54:06;5.80;;;3.13;;
36061;SDS011;22123;52.412;20.970;2023-02-28T05:56:32;10.10;;;3.60;;
36061;SDS011;22123;52.412;20.970;2023-02-28T05:58:58;7.93;;;4.70;;
36061;SDS011;22123;52.412;20.970;2023-02-28T06:03:59;5.25;;;4.18;;
36061;SDS011;22123;52.412;20.970;2023-02-28T06:06:25;9.63;;;6.13;;
36061;SDS011;22123;52.412;20.970;2023-02-28T06:08:51;12.52;;;6.03;;
36061;SDS011;22123;52.412;20.970;2023-02-28T06:11:17;6.65;;;4.82;;
36061;SDS011;22123;52.412;20.970;2023-02-28T06:13:43;5.47;;;4.15;;
36061;SDS011;22123;52.412;20.970;2023-02-28T06:16:10;5.10;;;2.95;;
36061;SDS011;22123;52.412;20.970;2023-02-28T06:18:37;4.63;;;4.00;;
36061;SDS011;22123;52.412;20.970;2023-02-28T06:21:03;3.83;;;3.50;;
36061;SDS011;22123;52.412;20.970;2023-02-28T06:23:29;8.43;;;5.22;;
36061;SDS011;22123;52.412;20.970;2023-02-28T06:25:56;8.68;;;3.60;;
36061;SDS011;22123;52.412;20.970;2023-02-28T06:28:21;5.25;;;4.05;;
36061;SDS011;22123;52.412;20.970;2023-02-28T06:30:47;31.73;;;8.60;;
36061;SDS011;22123;52.412;20.970;2023-02-28T06:33:13;5.40;;;4.88;;
36061;SDS011;22123;52.412;20.970;2023-02-28T06:35:39;6.45;;;3.95;;
36061;SDS011;22123;52.412;20.970;2023-02-28T06:38:05;14.55;;;7.30;;
36061;SDS011;22123;52.412;20.970;2023-02-28T06:40:31;11.05;;;6.25;;
36061;SDS011;22123;52.412;20.970;2023-02-28T06:42:57;15.02;;;5.65;;
36061;SDS011;22123;52.412;20.970;2023-02-28T06:45:22;16.30;;;8.30;;
36061;SDS011;22123;52.412;20.970;2023-02-28T06:47:48;26.42;;;9.27;;
36061;SDS011;22123;52.412;20.970;2023-02-28T06:50:14;18.15;;;7.07;;
36061;SDS011;22123;52.412;20.970;2023-02-28T06:52:40;22.48;;;6.75;;
36061;SDS011;22123;52.412;20.970;2023-02-28T06:55:06;13.38;;;8.05;;
36061;SDS011;22123;52.412;20.970;2023-02-28T06:57:33;14.38;;;8.60;;
36061;SDS011;22123;52.412;20.970;2023-02-28T07:00:02;26.38;;;9.70;;
36061;SDS011;22123;52.412;20.970;2023-02-28T07:02:33;24.88;;;10.77;;
36061;SDS011;22123;52.412;20.970;2023-02-28T07:05:00;7.47;;;5.65;;
36061;SDS011;22123;52.412;20.970;2023-02-28T07:07:26;23.30;;;6.97;;
36061;SDS011;22123;52.412;20.970;2023-02-28T07:09:54;12.32;;;5.57;;
36061;SDS011;22123;52.412;20.970;2023-02-28T07:12:20;12.60;;;5.95;;
36061;SDS011;22123;52.412;20.970;2023-02-28T07:14:46;25.98;;;6.10;;
36061;SDS011;22123;52.412;20.970;2023-02-28T07:17:12;17.75;;;5.38;;
36061;SDS011;22123;52.412;20.970;2023-02-28T07:19:38;19.63;;;7.40;;
36061;SDS011;22123;52.412;20.970;2023-02-28T07:22:05;19.88;;;7.50;;
36061;SDS011;22123;52.412;20.970;2023-02-28T07:24:31;26.13;;;10.52;;
36061;SDS011;22123;52.412;20.970;2023-02-28T07:26:57;23.23;;;7.95;;
36061;SDS011;22123;52.412;20.970;2023-02-28T07:29:22;19.15;;;6.97;;
36061;SDS011;22123;52.412;20.970;2023-02-28T07:31:48;8.20;;;4.57;;
36061;SDS011;22123;52.412;20.970;2023-02-28T07:34:14;13.90;;;5.72;;
36061;SDS011;22123;52.412;20.970;2023-02-28T07:36:40;4.97;;;3.42;;
36061;SDS011;22123;52.412;20.970;2023-02-28T07:39:06;11.65;;;5.22;;
36061;SDS011;22123;52.412;20.970;2023-02-28T07:41:32;6.43;;;2.90;;
36061;SDS011;22123;52.412;20.970;2023-02-28T07:43:58;4.25;;;2.58;;
36061;SDS011;22123;52.412;20.970;2023-02-28T07:46:23;5.00;;;2.92;;
36061;SDS011;22123;52.412;20.970;2023-02-28T07:48:49;1.80;;;0.77;;
36061;SDS011;22123;52.412;20.970;2023-02-28T07:51:15;4.25;;;1.65;;
36061;SDS011;22123;52.412;20.970;2023-02-28T07:53:41;3.13;;;1.52;;
36061;SDS011;22123;52.412;20.970;2023-02-28T07:56:07;3.75;;;1.77;;
36061;SDS011;22123;52.412;20.970;2023-02-28T07:58:33;7.32;;;2.03;;
36061;SDS011;22123;52.412;20.970;2023-02-28T08:01:06;1.67;;;1.50;;
36061;SDS011;22123;52.412;20.970;2023-02-28T08:03:33;2.47;;;0.88;;
36061;SDS011;22123;52.412;20.970;2023-02-28T08:05:59;4.30;;;1.83;;
36061;SDS011;22123;52.412;20.970;2023-02-28T08:08:25;6.25;;;2.75;;
36061;SDS011;22123;52.412;20.970;2023-02-28T08:10:51;3.47;;;2.05;;
36061;SDS011;22123;52.412;20.970;2023-02-28T08:13:17;4.50;;;1.48;;
36061;SDS011;22123;52.412;20.970;2023-02-28T08:15:43;3.78;;;1.58;;
36061;SDS011;22123;52.412;20.970;2023-02-28T08:18:09;2.58;;;1.40;;
36061;SDS011;22123;52.412;20.970;2023-02-28T08:20:35;4.85;;;2.00;;
36061;SDS011;22123;52.412;20.970;2023-02-28T08:23:01;4.07;;;1.88;;
36061;SDS011;22123;52.412;20.970;2023-02-28T08:25:33;9.43;;;2.08;;
36061;SDS011;22123;52.412;20.970;2023-02-28T08:27:58;1.92;;;1.02;;
36061;SDS011;22123;52.412;20.970;2023-02-28T08:30:24;1.38;;;0.93;;
36061;SDS011;22123;52.412;20.970;2023-02-28T08:32:50;4.18;;;1.70;;
36061;SDS011;22123;52.412;20.970;2023-02-28T08:35:16;4.18;;;1.70;;
36061;SDS011;22123;52.412;20.970;2023-02-28T08:37:42;1.80;;;1.15;;
36061;SDS011;22123;52.412;20.970;2023-02-28T08:40:08;4.38;;;2.30;;
36061;SDS011;22123;52.412;20.970;2023-02-28T08:42:34;2.97;;;1.77;;
36061;SDS011;22123;52.412;20.970;2023-02-28T08:45:00;4.20;;;1.17;;
36061;SDS011;22123;52.412;20.970;2023-02-28T08:47:26;4.50;;;1.35;;
36061;SDS011;22123;52.412;20.970;2023-02-28T08:49:52;2.80;;;1.52;;
36061;SDS011;22123;52.412;20.970;2023-02-28T08:52:18;5.72;;;1.27;;
36061;SDS011;22123;52.412;20.970;2023-02-28T08:54:44;4.00;;;1.20;;
36061;SDS011;22123;52.412;20.970;2023-02-28T08:57:10;3.60;;;1.90;;
36061;SDS011;22123;52.412;20.970;2023-02-28T08:59:36;4.00;;;2.28;;
36061;SDS011;22123;52.412;20.970;2023-02-28T09:02:02;2.88;;;1.77;;
36061;SDS011;22123;52.412;20.970;2023-02-28T09:04:28;2.35;;;1.30;;
36061;SDS011;22123;52.412;20.970;2023-02-28T09:06:54;5.18;;;1.88;;
36061;SDS011;22123;52.412;20.970;2023-02-28T09:09:20;2.60;;;1.40;;
36061;SDS011;22123;52.412;20.970;2023-02-28T09:11:45;4.82;;;1.25;;
36061;SDS011;22123;52.412;20.970;2023-02-28T09:14:11;2.42;;;1.20;;
36061;SDS011;22123;52.412;20.970;2023-02-28T09:16:37;2.28;;;1.10;;
36061;SDS011;22123;52.412;20.970;2023-02-28T09:19:03;2.67;;;2.08;;
36061;SDS011;22123;52.412;20.970;2023-02-28T09:21:29;3.75;;;1.75;;
36061;SDS011;22123;52.412;20.970;2023-02-28T09:23:55;2.40;;;1.55;;
36061;SDS011;22123;52.412;20.970;2023-02-28T09:26:22;3.67;;;2.83;;
36061;SDS011;22123;52.412;20.970;2023-02-28T09:28:53;2.88;;;1.50;;
36061;SDS011;22123;52.412;20.970;2023-02-28T09:31:21;5.07;;;2.40;;
36061;SDS011;22123;52.412;20.970;2023-02-28T09:33:52;3.20;;;1.90;;
36061;SDS011;22123;52.412;20.970;2023-02-28T09:36:19;2.10;;;1.50;;
36061;SDS011;22123;52.412;20.970;2023-02-28T09:38:46;3.20;;;1.20;;
36061;SDS011;22123;52.412;20.970;2023-02-28T09:44:09;3.45;;;1.40;;
36061;SDS011;22123;52.412;20.970;2023-02-28T09:46:44;9.52;;;1.45;;
36061;SDS011;22123;52.412;20.970;2023-02-28T09:49:14;2.25;;;1.45;;
36061;SDS011;22123;52.412;20.970;2023-02-28T09:51:59;1.85;;;1.10;;
36061;SDS011;22123;52.412;20.970;2023-02-28T09:54:30;6.70;;;2.47;;
36061;SDS011;22123;52.412;20.970;2023-02-28T09:59:56;5.68;;;1.77;;
36061;SDS011;22123;52.412;20.970;2023-02-28T10:05:10;2.72;;;1.13;;
36061;SDS011;22123;52.412;20.970;2023-02-28T10:07:48;7.82;;;2.35;;
36061;SDS011;22123;52.412;20.970;2023-02-28T10:10:45;2.50;;;1.85;;
36061;SDS011;22123;52.412;20.970;2023-02-28T10:13:23;3.15;;;1.77;;
36061;SDS011;22123;52.412;20.970;2023-02-28T10:15:54;3.50;;;1.95;;
36061;SDS011;22123;52.412;20.970;2023-02-28T10:18:28;2.78;;;2.17;;
36061;SDS011;22123;52.412;20.970;2023-02-28T10:21:02;2.42;;;1.75;;
36061;SDS011;22123;52.412;20.970;2023-02-28T10:23:30;4.28;;;1.83;;
36061;SDS011;22123;52.412;20.970;2023-02-28T10:26:00;3.10;;;2.33;;
36061;SDS011;22123;52.412;20.970;2023-02-28T10:28:33;5.47;;;3.05;;
36061;SDS011;22123;52.412;20.970;2023-02-28T10:30:59;4.43;;;2.15;;
36061;SDS011;22123;52.412;20.970;2023-02-28T10:33:30;5.35;;;2.50;;
36061;SDS011;22123;52.412;20.970;2023-02-28T10:35:58;4.88;;;2.58;;
36061;SDS011;22123;52.412;20.970;2023-02-28T10:38:25;4.65;;;2.28;;
36061;SDS011;22123;52.412;20.970;2023-02-28T10:41:03;3.67;;;2.33;;
36061;SDS011;22123;52.412;20.970;2023-02-28T10:43:31;5.43;;;2.20;;
36061;SDS011;22123;52.412;20.970;2023-02-28T10:46:04;8.10;;;3.42;;
36061;SDS011;22123;52.412;20.970;2023-02-28T10:51:06;3.70;;;2.40;;
36061;SDS011;22123;52.412;20.970;2023-02-28T11:01:48;5.07;;;2.25;;
36061;SDS011;22123;52.412;20.970;2023-02-28T11:04:18;5.63;;;2.35;;
36061;SDS011;22123;52.412;20.970;2023-02-28T11:06:45;5.20;;;2.17;;
36061;SDS011;22123;52.412;20.970;2023-02-28T11:09:22;4.75;;;2.22;;
36061;SDS011;22123;52.412;20.970;2023-02-28T11:11:54;5.45;;;2.33;;
36061;SDS011;22123;52.412;20.970;2023-02-28T11:14:21;3.90;;;2.33;;
36061;SDS011;22123;52.412;20.970;2023-02-28T11:16:49;3.85;;;2.33;;
36061;SDS011;22123;52.412;20.970;2023-02-28T11:19:18;5.30;;;2.17;;
36061;SDS011;22123;52.412;20.970;2023-02-28T11:22:01;6.38;;;2.97;;
36061;SDS011;22123;52.412;20.970;2023-02-28T11:24:35;6.78;;;2.45;;
36061;SDS011;22123;52.412;20.970;2023-02-28T11:27:12;4.82;;;2.85;;
36061;SDS011;22123;52.412;20.970;2023-02-28T11:33:20;6.57;;;2.72;;
36061;SDS011;22123;52.412;20.970;2023-02-28T11:35:48;7.40;;;3.05;;
36061;SDS011;22123;52.412;20.970;2023-02-28T11:38:16;5.85;;;3.05;;
36061;SDS011;22123;52.412;20.970;2023-02-28T11:51:59;5.30;;;2.33;;
36061;SDS011;22123;52.412;20.970;2023-02-28T12:03:44;7.82;;;3.50;;
36061;SDS011;22123;52.412;20.970;2023-02-28T12:06:31;5.82;;;2.85;;
36061;SDS011;22123;52.412;20.970;2023-02-28T12:16:42;4.75;;;2.13;;
36061;SDS011;22123;52.412;20.970;2023-02-28T12:19:13;4.60;;;1.85;;
36061;SDS011;22123;52.412;20.970;2023-02-28T12:27:40;5.80;;;2.22;;
36061;SDS011;22123;52.412;20.970;2023-02-28T12:30:32;4.75;;;2.53;;
36061;SDS011;22123;52.412;20.970;2023-02-28T12:33:13;6.53;;;2.42;;
36061;SDS011;22123;52.412;20.970;2023-02-28T12:38:17;5.88;;;2.20;;
36061;SDS011;22123;52.412;20.970;2023-02-28T12:40:49;8.13;;;2.25;;
36061;SDS011;22123;52.412;20.970;2023-02-28T12:43:22;4.38;;;2.15;;
36061;SDS011;22123;52.412;20.970;2023-02-28T12:45:57;3.97;;;2.30;;
36061;SDS011;22123;52.412;20.970;2023-02-28T12:51:05;6.88;;;2.33;;
36061;SDS011;22123;52.412;20.970;2023-02-28T12:56:21;5.07;;;2.35;;
36061;SDS011;22123;52.412;20.970;2023-02-28T12:58:51;4.97;;;2.28;;
36061;SDS011;22123;52.412;20.970;2023-02-28T13:06:50;4.63;;;2.50;;
36061;SDS011;22123;52.412;20.970;2023-02-28T13:09:36;3.45;;;1.88;;
36061;SDS011;22123;52.412;20.970;2023-02-28T13:12:12;14.48;;;2.80;;
36061;SDS011;22123;52.412;20.970;2023-02-28T13:14:41;4.70;;;1.85;;
36061;SDS011;22123;52.412;20.970;2023-02-28T13:19:34;6.68;;;2.00;;
36061;SDS011;22123;52.412;20.970;2023-02-28T13:22:03;3.22;;;1.83;;
36061;SDS011;22123;52.412;20.970;2023-02-28T13:27:32;2.67;;;1.48;;
36061;SDS011;22123;52.412;20.970;2023-02-28T13:30:00;2.15;;;1.88;;
36061;SDS011;22123;52.412;20.970;2023-02-28T13:32:30;3.95;;;2.20;;
36061;SDS011;22123;52.412;20.970;2023-02-28T13:39:53;3.15;;;2.03;;
36061;SDS011;22123;52.412;20.970;2023-02-28T13:42:35;4.22;;;1.95;;
36061;SDS011;22123;52.412;20.970;2023-02-28T13:45:21;5.05;;;1.88;;
36061;SDS011;22123;52.412;20.970;2023-02-28T13:48:03;2.42;;;1.40;;
36061;SDS011;22123;52.412;20.970;2023-02-28T13:50:39;2.58;;;1.45;;
36061;SDS011;22123;52.412;20.970;2023-02-28T14:06:29;3.47;;;1.58;;
36061;SDS011;22123;52.412;20.970;2023-02-28T14:11:32;3.22;;;2.22;;
36061;SDS011;22123;52.412;20.970;2023-02-28T14:14:00;5.28;;;2.03;;
36061;SDS011;22123;52.412;20.970;2023-02-28T14:16:34;3.05;;;1.65;;
36061;SDS011;22123;52.412;20.970;2023-02-28T14:19:02;3.15;;;1.60;;
36061;SDS011;22123;52.412;20.970;2023-02-28T14:21:37;2.63;;;1.80;;
36061;SDS011;22123;52.412;20.970;2023-02-28T14:24:13;7.78;;;1.65;;
36061;SDS011;22123;52.412;20.970;2023-02-28T14:38:14;2.60;;;1.55;;
36061;SDS011;22123;52.412;20.970;2023-02-28T14:40:45;4.03;;;2.13;;
36061;SDS011;22123;52.412;20.970;2023-02-28T14:43:23;2.35;;;1.55;;
36061;SDS011;22123;52.412;20.970;2023-02-28T14:45:52;3.75;;;1.73;;
36061;SDS011;22123;52.412;20.970;2023-02-28T14:48:23;3.83;;;1.65;;
36061;SDS011;22123;52.412;20.970;2023-02-28T14:50:52;3.80;;;2.33;;
36061;SDS011;22123;52.412;20.970;2023-02-28T14:53:20;4.90;;;2.08;;
36061;SDS011;22123;52.412;20.970;2023-02-28T14:55:48;4.68;;;2.50;;
36061;SDS011;22123;52.412;20.970;2023-02-28T14:58:22;2.22;;;1.45;;
36061;SDS011;22123;52.412;20.970;2023-02-28T15:00:51;1.42;;;1.30;;
36061;SDS011;22123;52.412;20.970;2023-02-28T15:05:53;4.22;;;1.60;;
36061;SDS011;22123;52.412;20.970;2023-02-28T15:08:23;4.47;;;2.42;;
36061;SDS011;22123;52.412;20.970;2023-02-28T15:11:00;8.23;;;1.30;;
36061;SDS011;22123;52.412;20.970;2023-02-28T15:13:39;7.47;;;1.65;;
36061;SDS011;22123;52.412;20.970;2023-02-28T15:16:18;4.28;;;0.98;;
36061;SDS011;22123;52.412;20.970;2023-02-28T15:21:37;2.92;;;1.73;;
36061;SDS011;22123;52.412;20.970;2023-02-28T15:24:12;7.20;;;2.40;;
36061;SDS011;22123;52.412;20.970;2023-02-28T15:26:43;7.13;;;2.53;;
36061;SDS011;22123;52.412;20.970;2023-02-28T15:29:15;3.85;;;1.33;;
36061;SDS011;22123;52.412;20.970;2023-02-28T15:31:46;4.22;;;2.00;;
36061;SDS011;22123;52.412;20.970;2023-02-28T15:37:53;4.35;;;1.63;;
36061;SDS011;22123;52.412;20.970;2023-02-28T15:43:03;3.55;;;1.38;;
36061;SDS011;22123;52.412;20.970;2023-02-28T15:45:41;6.55;;;3.00;;
36061;SDS011;22123;52.412;20.970;2023-02-28T15:48:13;3.88;;;1.35;;
36061;SDS011;22123;52.412;20.970;2023-02-28T15:50:52;2.20;;;1.60;;
36061;SDS011;22123;52.412;20.970;2023-02-28T15:53:25;3.78;;;2.20;;
36061;SDS011;22123;52.412;20.970;2023-02-28T15:55:59;3.78;;;1.88;;
36061;SDS011;22123;52.412;20.970;2023-02-28T15:58:30;2.85;;;1.75;;
36061;SDS011;22123;52.412;20.970;2023-02-28T16:01:05;13.48;;;4.05;;
36061;SDS011;22123;52.412;20.970;2023-02-28T16:03:50;3.40;;;2.67;;
36061;SDS011;22123;52.412;20.970;2023-02-28T16:06:21;11.45;;;2.90;;
36061;SDS011;22123;52.412;20.970;2023-02-28T16:08:56;3.67;;;1.63;;
36061;SDS011;22123;52.412;20.970;2023-02-28T16:11:22;1.73;;;1.50;;
36061;SDS011;22123;52.412;20.970;2023-02-28T16:13:48;4.95;;;1.25;;
36061;SDS011;22123;52.412;20.970;2023-02-28T16:16:16;4.80;;;2.85;;
36061;SDS011;22123;52.412;20.970;2023-02-28T16:18:43;6.53;;;2.65;;
36061;SDS011;22123;52.412;20.970;2023-02-28T16:21:09;2.58;;;1.98;;
36061;SDS011;22123;52.412;20.970;2023-02-28T16:23:35;5.32;;;2.42;;
36061;SDS011;22123;52.412;20.970;2023-02-28T16:26:02;3.25;;;2.03;;
36061;SDS011;22123;52.412;20.970;2023-02-28T16:28:33;4.50;;;3.08;;
36061;SDS011;22123;52.412;20.970;2023-02-28T16:31:02;4.22;;;1.80;;
36061;SDS011;22123;52.412;20.970;2023-02-28T16:33:30;8.50;;;3.88;;
36061;SDS011;22123;52.412;20.970;2023-02-28T16:35:56;4.53;;;2.65;;
36061;SDS011;22123;52.412;20.970;2023-02-28T16:38:22;11.18;;;3.40;;
36061;SDS011;22123;52.412;20.970;2023-02-28T16:40:49;9.27;;;4.60;;
36061;SDS011;22123;52.412;20.970;2023-02-28T16:43:17;8.15;;;2.25;;
36061;SDS011;22123;52.412;20.970;2023-02-28T16:45:45;2.05;;;1.80;;
36061;SDS011;22123;52.412;20.970;2023-02-28T16:48:12;4.95;;;2.65;;
36061;SDS011;22123;52.412;20.970;2023-02-28T16:50:40;9.93;;;3.67;;
36061;SDS011;22123;52.412;20.970;2023-02-28T16:53:07;16.90;;;3.13;;
36061;SDS011;22123;52.412;20.970;2023-02-28T16:55:33;7.05;;;2.88;;
36061;SDS011;22123;52.412;20.970;2023-02-28T16:58:00;12.23;;;3.20;;
36061;SDS011;22123;52.412;20.970;2023-02-28T17:00:28;4.65;;;2.67;;
36061;SDS011;22123;52.412;20.970;2023-02-28T17:02:56;12.38;;;4.88;;
36061;SDS011;22123;52.412;20.970;2023-02-28T17:05:24;2.92;;;2.38;;
36061;SDS011;22123;52.412;20.970;2023-02-28T17:07:52;14.80;;;4.60;;
36061;SDS011;22123;52.412;20.970;2023-02-28T17:10:23;7.80;;;3.10;;
36061;SDS011;22123;52.412;20.970;2023-02-28T17:12:58;9.82;;;6.30;;
36061;SDS011;22123;52.412;20.970;2023-02-28T17:15:24;12.73;;;4.07;;
36061;SDS011;22123;52.412;20.970;2023-02-28T17:17:50;5.32;;;3.33;;
36061;SDS011;22123;52.412;20.970;2023-02-28T17:20:17;6.70;;;3.92;;
36061;SDS011;22123;52.412;20.970;2023-02-28T17:22:47;8.27;;;3.58;;
36061;SDS011;22123;52.412;20.970;2023-02-28T17:25:13;10.13;;;4.40;;
36061;SDS011;22123;52.412;20.970;2023-02-28T17:27:39;12.10;;;4.72;;
36061;SDS011;22123;52.412;20.970;2023-02-28T17:30:10;16.92;;;5.82;;
36061;SDS011;22123;52.412;20.970;2023-02-28T17:32:41;13.80;;;6.13;;